Terminal Aerodrome Forecast
Issued by NWS Atlanta, GA

Current Version | Previous Version | Text Only | Print | Product List | Glossary On
Versions: 1 2 3 4 5 6 7 8 9 10 11 12 13 14 15 16 17 18 19 20 21 22 23 24 25 26 27 28 29 30 31 32
000
FTAK31 PAJN 030520
TAFAHN
TAF
PAHN 030520Z 0306/0406 32006KT P6SM VCSH SCT030 BKN050 OVC100
     FM031500 30009KT P6SM FEW050 SCT100
     FM032100 31013KT P6SM SCT100
     FM040300 VRB04KT P6SM SCT100
      AMD LTD TO CLD VIS AND WIND=

USA.gov is the U.S. government's official web portal to all federal, state and local government web resources and services.